createdAt,value
2018-12-14T00:02:31.223Z,25.37
2018-12-14T00:05:00.811Z,25.35
2018-12-14T00:07:30.290Z,23.85
2018-12-14T00:09:59.712Z,24.25
2018-12-14T00:12:29.173Z,24.72
2018-12-14T00:14:58.422Z,24.25
2018-12-14T00:17:27.741Z,25.12
2018-12-14T00:19:57.026Z,24.05
2018-12-14T00:22:26.508Z,25.10
2018-12-14T00:24:55.931Z,23.40
2018-12-14T00:27:25.487Z,23.73
2018-12-14T00:29:54.900Z,25.02
2018-12-14T00:32:24.152Z,24.52
2018-12-14T00:34:53.531Z,22.77
2018-12-14T00:37:22.822Z,22.58
2018-12-14T00:39:52.123Z,23.07
2018-12-14T00:42:21.552Z,21.37
2018-12-14T00:44:50.827Z,22.48
2018-12-14T00:47:20.235Z,22.58
2018-12-14T00:49:49.538Z,22.48
2018-12-14T00:52:18.939Z,21.87
2018-12-14T00:54:48.251Z,22.10
2018-12-14T00:57:17.657Z,21.90
2018-12-14T00:59:47.052Z,21.65
2018-12-14T01:02:21.318Z,20.45
2018-12-14T01:04:50.564Z,21.02
2018-12-14T01:07:19.831Z,21.07
2018-12-14T01:09:48.980Z,20.85
2018-12-14T01:12:18.503Z,19.77
2018-12-14T01:14:47.909Z,21.65
2018-12-14T01:17:17.332Z,20.00
2018-12-14T01:19:46.604Z,21.48
2018-12-14T01:22:15.931Z,21.15
2018-12-14T01:24:45.375Z,20.35
2018-12-14T01:27:14.802Z,19.57
2018-12-14T01:29:44.110Z,20.27
2018-12-14T01:32:13.448Z,19.20
2018-12-14T01:34:42.705Z,19.45
2018-12-14T01:37:12.003Z,19.95
2018-12-14T01:39:41.499Z,19.32
2018-12-14T01:42:10.922Z,18.95
2018-12-14T01:44:40.519Z,18.85
2018-12-14T01:47:09.843Z,19.20
2018-12-14T01:49:39.029Z,18.15
2018-12-14T01:52:08.524Z,17.62
2018-12-14T01:54:38.027Z,18.55
2018-12-14T01:57:07.345Z,18.12
2018-12-14T01:59:36.760Z,17.62
2018-12-14T02:02:06.054Z,18.75
2018-12-14T02:04:35.506Z,17.40
2018-12-14T02:07:04.959Z,16.30
2018-12-14T02:09:34.265Z,17.00
2018-12-14T02:12:03.478Z,16.80
2018-12-14T02:14:32.874Z,16.27
2018-12-14T02:17:32.911Z,16.23
2018-12-14T02:20:02.177Z,15.75
2018-12-14T02:22:31.622Z,15.85
2018-12-14T02:25:00.791Z,15.13
2018-12-14T02:27:30.100Z,15.53
2018-12-14T02:29:59.316Z,15.35
2018-12-14T02:32:28.592Z,14.38
2018-12-14T02:34:57.973Z,15.43
2018-12-14T02:37:27.297Z,14.53
2018-12-14T02:39:56.697Z,15.00
2018-12-14T02:42:25.999Z,13.90
2018-12-14T02:44:55.412Z,14.03
2018-12-14T02:47:24.706Z,14.28
2018-12-14T02:49:54.174Z,14.23
2018-12-14T02:52:23.456Z,13.45
2018-12-14T02:54:53.002Z,13.78
2018-12-14T02:57:22.427Z,14.07
2018-12-14T02:59:51.702Z,13.20
2018-12-14T03:02:21.060Z,14.18
2018-12-14T03:04:50.433Z,13.72
2018-12-14T03:07:19.643Z,12.88
2018-12-14T03:09:48.939Z,12.58
2018-12-14T03:12:18.420Z,12.88
2018-12-14T03:14:47.841Z,12.80
2018-12-14T03:17:17.491Z,12.43
2018-12-14T03:19:47.110Z,11.88
2018-12-14T03:22:16.816Z,11.73
2018-12-14T03:24:46.484Z,12.47
2018-12-14T03:27:15.793Z,11.45
2018-12-14T03:29:45.167Z,11.43
2018-12-14T03:32:14.682Z,12.25
2018-12-14T03:34:44.071Z,11.83
2018-12-14T03:37:13.284Z,10.80
2018-12-14T03:39:42.693Z,11.33
2018-12-14T03:42:12.293Z,10.65
2018-12-14T03:44:41.608Z,10.78
2018-12-14T03:47:11.116Z,11.10
2018-12-14T03:49:40.487Z,10.82
2018-12-14T03:52:09.906Z,10.88
2018-12-14T03:54:39.031Z,10.63
2018-12-14T03:57:08.319Z,10.10
2018-12-14T03:59:37.600Z,10.20
2018-12-14T04:02:07.003Z,10.30
2018-12-14T04:04:36.231Z,10.32
2018-12-14T04:07:05.421Z,10.30
2018-12-14T04:09:34.731Z,10.28
2018-12-14T04:12:04.128Z,10.45
2018-12-14T04:14:33.612Z,9.45
2018-12-14T04:17:02.960Z,10.48
2018-12-14T04:19:32.310Z,9.88
2018-12-14T04:22:01.633Z,9.63
2018-12-14T04:24:30.944Z,10.30
2018-12-14T04:27:00.236Z,10.08
2018-12-14T04:29:29.636Z,10.15
2018-12-14T04:31:59.152Z,10.63
2018-12-14T04:34:28.531Z,10.18
2018-12-14T04:36:57.761Z,10.63
2018-12-14T04:39:27.137Z,10.60
2018-12-14T04:41:56.360Z,10.00
2018-12-14T04:44:25.764Z,10.18
2018-12-14T04:46:55.328Z,10.58
2018-12-14T04:49:24.820Z,10.98
2018-12-14T04:51:54.192Z,10.58
2018-12-14T04:54:23.463Z,10.23
2018-12-14T04:56:53.002Z,11.10
2018-12-14T04:59:22.606Z,11.33
2018-12-14T05:01:51.879Z,10.53
2018-12-14T05:04:21.293Z,10.18
2018-12-14T05:06:50.693Z,10.95
2018-12-14T05:09:20.092Z,10.40
2018-12-14T05:11:49.638Z,9.98
2018-12-14T05:14:19.277Z,10.43
2018-12-14T05:16:48.404Z,9.75
2018-12-14T05:19:17.927Z,9.28
2018-12-14T05:21:47.392Z,9.60
2018-12-14T05:24:17.203Z,9.43
2018-12-14T05:26:46.634Z,10.03
2018-12-14T05:29:15.948Z,10.63
2018-12-14T05:31:45.010Z,10.38
2018-12-14T05:34:14.320Z,10.78
2018-12-14T05:36:43.840Z,10.18
2018-12-14T05:39:13.187Z,10.50
2018-12-14T05:41:42.684Z,10.03
2018-12-14T05:44:12.052Z,10.75
2018-12-14T05:46:41.332Z,10.28
2018-12-14T05:49:10.672Z,9.88
2018-12-14T05:51:40.012Z,10.03
2018-12-14T05:54:09.904Z,9.38
2018-12-14T05:56:39.582Z,9.20
2018-12-14T05:59:09.060Z,9.08
2018-12-14T06:01:38.514Z,9.23
2018-12-14T06:04:08.366Z,9.30
2018-12-14T06:06:37.744Z,9.30
2018-12-14T06:09:08.099Z,10.00
2018-12-14T06:11:37.724Z,11.20
2018-12-14T06:14:08.188Z,9.73
2018-12-14T06:16:37.733Z,9.35
2018-12-14T06:19:07.107Z,9.05
2018-12-14T06:21:36.524Z,8.40
2018-12-14T06:24:05.801Z,8.98
2018-12-14T06:26:35.170Z,13.45
2018-12-14T06:29:04.613Z,16.35
2018-12-14T06:31:33.895Z,17.10
2018-12-14T06:34:03.207Z,17.77
2018-12-14T06:36:32.411Z,21.57
2018-12-14T06:39:02.231Z,21.52
2018-12-14T06:41:31.510Z,17.25
2018-12-14T06:44:00.842Z,20.65
2018-12-14T06:46:30.094Z,21.68
2018-12-14T06:48:59.318Z,23.32
2018-12-14T06:51:28.618Z,21.82
2018-12-14T06:53:57.927Z,24.87
2018-12-14T06:56:27.200Z,24.80
2018-12-14T06:58:56.308Z,24.57
2018-12-14T07:01:25.508Z,27.65
2018-12-14T07:03:54.821Z,28.05
2018-12-14T07:06:24.226Z,26.75
2018-12-14T07:08:53.615Z,31.62
2018-12-14T07:11:23.007Z,30.43
2018-12-14T07:13:52.431Z,32.08
2018-12-14T07:16:21.915Z,32.33
2018-12-14T07:18:51.341Z,31.70
2018-12-14T07:21:20.540Z,32.67
2018-12-14T07:23:49.842Z,36.48
2018-12-14T07:26:19.248Z,35.70
2018-12-14T07:28:49.099Z,36.68
2018-12-14T07:31:18.351Z,37.42
2018-12-14T07:33:47.747Z,40.33
2018-12-14T07:36:17.052Z,41.15
2018-12-14T07:38:48.224Z,41.35
2018-12-14T07:41:17.491Z,40.25
2018-12-14T07:43:46.820Z,43.98
2018-12-14T07:46:16.408Z,46.02
2018-12-14T07:48:45.856Z,46.13
2018-12-14T07:51:15.119Z,48.42
2018-12-14T07:53:44.430Z,47.70
2018-12-14T07:56:13.715Z,52.65
2018-12-14T07:58:43.097Z,51.58
2018-12-14T08:01:12.358Z,50.40
2018-12-14T08:03:41.815Z,47.90
2018-12-14T08:06:11.132Z,48.70
2018-12-14T08:08:40.560Z,48.65
2018-12-14T08:11:09.847Z,47.55
2018-12-14T08:13:39.154Z,46.33
2018-12-14T08:16:08.447Z,36.10
2018-12-14T08:18:37.752Z,28.90
2018-12-14T08:21:07.061Z,29.80
2018-12-14T08:23:36.458Z,31.95
2018-12-14T08:26:05.834Z,28.57
2018-12-14T08:28:35.152Z,30.02
2018-12-14T08:31:04.540Z,28.73
2018-12-14T08:33:33.870Z,28.75
2018-12-14T08:36:03.055Z,26.35
2018-12-14T08:38:32.355Z,26.00
2018-12-14T08:41:01.844Z,27.15
2018-12-14T08:43:31.143Z,26.23
2018-12-14T08:46:00.554Z,24.50
2018-12-14T08:48:30.024Z,25.00
2018-12-14T08:50:59.377Z,24.37
2018-12-14T08:53:28.945Z,25.10
2018-12-14T08:55:58.437Z,26.07
2018-12-14T08:58:27.788Z,24.87
2018-12-14T09:00:57.191Z,27.07
2018-12-14T09:03:26.596Z,26.82
2018-12-14T09:05:55.903Z,27.13
2018-12-14T09:08:25.285Z,27.00
2018-12-14T09:10:54.506Z,28.27
2018-12-14T09:13:24.265Z,28.07
2018-12-14T09:15:53.611Z,27.27
2018-12-14T09:18:22.703Z,29.10
2018-12-14T09:20:52.011Z,28.27
2018-12-14T09:23:21.424Z,29.27
2018-12-14T09:25:50.738Z,27.10
2018-12-14T09:28:20.015Z,28.20
2018-12-14T09:30:49.332Z,29.80
2018-12-14T09:33:18.815Z,28.67
2018-12-14T09:35:48.219Z,28.17
2018-12-14T09:38:17.536Z,31.33
2018-12-14T09:40:46.925Z,29.60
2018-12-14T09:43:16.246Z,30.27
2018-12-14T09:45:45.425Z,29.75
2018-12-14T09:48:14.645Z,30.92
2018-12-14T09:50:43.934Z,28.83
2018-12-14T09:53:14.332Z,30.62
2018-12-14T09:55:43.459Z,30.57
2018-12-14T09:58:12.663Z,29.32
2018-12-14T10:00:41.871Z,29.60
2018-12-14T10:03:11.364Z,28.95
2018-12-14T10:05:40.869Z,27.25
2018-12-14T10:08:10.299Z,27.00
2018-12-14T10:10:39.952Z,26.65
2018-12-14T10:13:09.531Z,26.27
2018-12-14T10:15:38.872Z,24.95
2018-12-14T10:18:08.186Z,25.65
2018-12-14T10:20:37.392Z,24.50
2018-12-14T10:23:06.686Z,26.23
2018-12-14T10:25:36.107Z,24.67
2018-12-14T10:28:05.414Z,25.45
2018-12-14T10:30:34.706Z,24.37
2018-12-14T10:33:03.900Z,24.90
2018-12-14T10:35:33.111Z,24.63
2018-12-14T10:38:02.397Z,22.85
2018-12-14T10:40:31.894Z,24.10
2018-12-14T10:43:01.296Z,23.02
2018-12-14T10:45:30.655Z,23.75
2018-12-14T10:47:59.918Z,23.83
2018-12-14T10:50:38.742Z,23.67
2018-12-14T10:53:04.653Z,23.57
2018-12-14T10:55:34.161Z,21.60
2018-12-14T10:58:03.729Z,22.07
2018-12-14T11:00:38.036Z,22.27
2018-12-14T11:03:07.417Z,22.15
2018-12-14T11:05:36.700Z,21.85
2018-12-14T11:08:05.986Z,21.87
2018-12-14T11:10:35.091Z,21.48
2018-12-14T11:13:04.303Z,21.97
2018-12-14T11:15:33.601Z,19.92
2018-12-14T11:18:03.082Z,19.40
2018-12-14T11:20:32.488Z,19.17
2018-12-14T11:23:01.787Z,19.32
2018-12-14T11:25:31.203Z,19.85
2018-12-14T11:28:00.499Z,19.92
2018-12-14T11:30:29.806Z,19.52
2018-12-14T11:32:59.212Z,19.10
2018-12-14T11:35:28.520Z,19.57
2018-12-14T11:37:57.825Z,19.57
2018-12-14T11:40:27.308Z,18.10
2018-12-14T11:42:56.603Z,18.40
2018-12-14T11:45:25.926Z,19.48
2018-12-14T11:47:55.329Z,23.77
2018-12-14T11:50:24.729Z,27.87
2018-12-14T11:52:54.042Z,27.62
2018-12-14T11:55:23.432Z,31.82
2018-12-14T11:57:52.923Z,34.20
2018-12-14T12:00:22.376Z,39.33
2018-12-14T12:02:51.648Z,46.58
2018-12-14T12:05:20.947Z,43.63
2018-12-14T12:07:50.503Z,45.20
2018-12-14T12:10:19.768Z,47.33
2018-12-14T12:12:49.260Z,47.13
2018-12-14T12:15:18.682Z,55.23
2018-12-14T12:17:49.526Z,61.25
2018-12-14T12:20:19.168Z,62.90
2018-12-14T12:22:48.668Z,65.47
2018-12-14T12:25:18.007Z,77.40
2018-12-14T12:27:47.219Z,78.85
2018-12-14T12:30:16.623Z,69.53
2018-12-14T12:32:46.028Z,73.00
2018-12-14T12:35:15.236Z,72.08
2018-12-14T12:37:44.532Z,77.67
2018-12-14T12:40:13.924Z,72.58
2018-12-14T12:42:43.414Z,71.87
2018-12-14T12:45:12.669Z,68.33
2018-12-14T12:47:41.938Z,64.27
2018-12-14T12:50:11.287Z,63.75
2018-12-14T12:52:40.636Z,63.63
2018-12-14T12:55:09.941Z,61.02
2018-12-14T12:57:39.255Z,56.10
2018-12-14T13:00:08.895Z,50.83
2018-12-14T13:02:38.037Z,47.62
2018-12-14T13:05:07.165Z,47.75
2018-12-14T13:07:36.445Z,45.78
2018-12-14T13:10:05.747Z,46.60
2018-12-14T13:12:35.052Z,46.88
2018-12-14T13:15:04.660Z,45.17
2018-12-14T13:17:34.068Z,43.95
2018-12-14T13:20:03.469Z,46.02
2018-12-14T13:22:32.668Z,43.75
2018-12-14T13:25:01.996Z,44.73
2018-12-14T13:27:31.271Z,45.50
2018-12-14T13:30:00.764Z,44.83
2018-12-14T13:32:29.983Z,45.20
2018-12-14T13:34:59.371Z,44.77
2018-12-14T13:37:28.771Z,44.75
2018-12-14T13:39:57.903Z,45.12
2018-12-14T13:42:27.286Z,42.80
2018-12-14T13:44:56.835Z,41.28
2018-12-14T13:47:26.292Z,42.13
2018-12-14T13:49:55.686Z,42.53
2018-12-14T13:52:25.044Z,39.85
2018-12-14T13:54:54.400Z,40.20
2018-12-14T13:57:23.604Z,41.08
2018-12-14T13:59:52.913Z,41.83
2018-12-14T14:02:22.214Z,39.48
2018-12-14T14:04:51.502Z,39.58
2018-12-14T14:07:21.012Z,40.83
2018-12-14T14:09:50.406Z,40.75
2018-12-14T14:12:19.743Z,39.98
2018-12-14T14:14:52.962Z,39.67
2018-12-14T14:17:20.474Z,38.92
2018-12-14T14:19:50.128Z,39.60
2018-12-14T14:22:19.656Z,37.48
2018-12-14T14:24:49.181Z,38.20
2018-12-14T14:27:18.397Z,38.65
2018-12-14T14:29:47.690Z,38.90
2018-12-14T14:32:17.107Z,35.83
2018-12-14T14:34:46.312Z,36.83
2018-12-14T14:37:15.593Z,37.63
2018-12-14T14:39:44.797Z,39.42
2018-12-14T14:42:14.101Z,36.83
2018-12-14T14:44:43.579Z,35.98
2018-12-14T14:47:12.864Z,35.75
2018-12-14T14:49:42.187Z,34.25
2018-12-14T14:52:11.604Z,34.90
2018-12-14T14:54:41.012Z,34.30
2018-12-14T14:57:10.307Z,33.33
2018-12-14T14:59:39.625Z,35.03
2018-12-14T15:02:09.017Z,33.50
2018-12-14T15:04:38.508Z,32.58
2018-12-14T15:07:07.920Z,31.45
2018-12-14T15:09:37.115Z,31.07
2018-12-14T15:12:06.423Z,32.38
2018-12-14T15:14:35.720Z,30.95
2018-12-14T15:17:05.131Z,29.63
2018-12-14T15:19:34.535Z,29.82
2018-12-14T15:22:04.729Z,29.20
2018-12-14T15:24:34.368Z,27.95
2018-12-14T15:27:04.484Z,29.52
2018-12-14T15:29:33.974Z,26.87
2018-12-14T15:32:03.391Z,27.95
2018-12-14T15:34:32.592Z,27.65
2018-12-14T15:37:01.796Z,26.35
2018-12-14T15:39:31.088Z,22.80
2018-12-14T15:42:00.401Z,24.32
2018-12-14T15:44:29.805Z,24.75
2018-12-14T15:46:59.191Z,25.15
2018-12-14T15:49:28.507Z,23.42
2018-12-14T15:51:57.914Z,24.63
2018-12-14T15:54:27.323Z,23.18
2018-12-14T15:56:56.624Z,23.07
2018-12-14T15:59:26.015Z,23.98
2018-12-14T16:01:55.315Z,23.20
2018-12-14T16:04:24.629Z,24.50
2018-12-14T16:06:54.201Z,24.10
2018-12-14T16:09:23.511Z,22.50
2018-12-14T16:11:52.925Z,22.22
2018-12-14T16:14:22.263Z,22.07
2018-12-14T16:16:51.648Z,22.17
2018-12-14T16:19:21.019Z,22.27
2018-12-14T16:21:50.535Z,21.80
2018-12-14T16:24:19.836Z,22.27
2018-12-14T16:26:49.233Z,21.05
2018-12-14T16:29:18.645Z,21.90
2018-12-14T16:31:47.968Z,21.52
2018-12-14T16:34:17.363Z,20.92
2018-12-14T16:36:46.668Z,20.57
2018-12-14T16:39:16.470Z,19.90
2018-12-14T16:41:45.790Z,19.87
2018-12-14T16:44:15.074Z,19.65
2018-12-14T16:46:44.398Z,20.00
2018-12-14T16:49:13.563Z,18.77
2018-12-14T16:51:42.698Z,19.27
2018-12-14T16:54:12.168Z,18.80
2018-12-14T16:56:41.595Z,18.35
2018-12-14T16:59:10.979Z,18.87
2018-12-14T17:01:40.280Z,19.12
2018-12-14T17:04:09.574Z,18.52
2018-12-14T17:06:38.791Z,17.92
2018-12-14T17:09:08.091Z,17.32
2018-12-14T17:11:37.194Z,17.48
2018-12-14T17:14:06.519Z,17.45
2018-12-14T17:16:35.892Z,16.70
2018-12-14T17:19:05.281Z,16.93
2018-12-14T17:21:34.584Z,16.85
2018-12-14T17:24:03.883Z,16.17
2018-12-14T17:26:33.196Z,16.82
2018-12-14T17:29:02.647Z,15.90
2018-12-14T17:31:32.009Z,14.98
2018-12-14T17:34:01.308Z,15.03
2018-12-14T17:36:30.657Z,21.57
2018-12-14T17:38:59.933Z,21.33
2018-12-14T17:41:29.403Z,28.67
2018-12-14T17:43:58.543Z,32.98
2018-12-14T17:46:28.195Z,38.08
2018-12-14T17:48:57.434Z,41.20
2018-12-14T17:51:26.864Z,53.13
2018-12-14T17:53:56.244Z,52.25
2018-12-14T17:56:25.653Z,51.77
2018-12-14T17:58:55.049Z,56.00
2018-12-14T18:01:24.296Z,56.83
2018-12-14T18:03:53.653Z,50.25
2018-12-14T18:06:22.944Z,51.70
2018-12-14T18:08:52.403Z,49.60
2018-12-14T18:11:21.687Z,50.17
2018-12-14T18:13:50.867Z,47.35
2018-12-14T18:16:20.267Z,45.28
2018-12-14T18:18:49.547Z,45.25
2018-12-14T18:21:19.017Z,43.28
2018-12-14T18:23:48.266Z,41.88
2018-12-14T18:26:17.503Z,42.40
2018-12-14T18:28:46.856Z,39.55
2018-12-14T18:31:16.219Z,38.67
2018-12-14T18:33:45.524Z,37.58
2018-12-14T18:36:14.815Z,37.58
2018-12-14T18:38:43.902Z,36.20
2018-12-14T18:41:13.212Z,34.35
2018-12-14T18:43:42.328Z,34.65
2018-12-14T18:46:11.512Z,33.50
2018-12-14T18:48:40.783Z,33.40
2018-12-14T18:51:10.248Z,34.25
2018-12-14T18:53:41.618Z,34.60
2018-12-14T18:56:10.747Z,32.17
2018-12-14T18:58:39.907Z,30.35
2018-12-14T19:01:09.192Z,31.07
2018-12-14T19:03:38.623Z,30.80
2018-12-14T19:06:07.957Z,30.23
2018-12-14T19:08:37.255Z,30.80
2018-12-14T19:11:36.979Z,30.15
2018-12-14T19:14:06.334Z,28.00
2018-12-14T19:16:35.738Z,29.75
2018-12-14T19:19:04.951Z,27.90
2018-12-14T19:21:34.336Z,27.02
2018-12-14T19:24:03.669Z,28.45
2018-12-14T19:26:32.854Z,26.10
2018-12-14T19:29:02.232Z,26.10
2018-12-14T19:31:31.350Z,26.75
2018-12-14T19:34:00.653Z,26.27
2018-12-14T19:36:30.893Z,25.43
2018-12-14T19:39:00.377Z,26.50
2018-12-14T19:41:29.860Z,26.33
2018-12-14T19:43:58.984Z,25.65
2018-12-14T19:46:28.364Z,26.10
2018-12-14T19:48:57.496Z,23.00
2018-12-14T19:51:26.869Z,23.90
2018-12-14T19:53:56.199Z,24.37
2018-12-14T19:56:25.447Z,23.73
2018-12-14T19:58:54.785Z,25.20
2018-12-14T20:01:24.040Z,24.63
2018-12-14T20:03:53.271Z,24.00
2018-12-14T20:06:22.704Z,23.02
2018-12-14T20:08:51.935Z,22.85
2018-12-14T20:11:20.883Z,22.02
2018-12-14T20:13:50.280Z,23.20
2018-12-14T20:16:19.774Z,22.73
2018-12-14T20:18:49.290Z,22.70
2018-12-14T20:21:18.688Z,22.32
2018-12-14T20:23:47.900Z,22.40
2018-12-14T20:26:17.178Z,20.52
2018-12-14T20:28:46.503Z,20.80
2018-12-14T20:31:15.895Z,21.12
2018-12-14T20:33:45.212Z,20.00
2018-12-14T20:36:14.547Z,19.85
2018-12-14T20:38:43.900Z,18.98
2018-12-14T20:41:13.327Z,20.43
2018-12-14T20:43:42.610Z,19.55
2018-12-14T20:46:12.009Z,19.12
2018-12-14T20:48:41.510Z,18.55
2018-12-14T20:51:10.933Z,19.30
2018-12-14T20:53:40.250Z,19.00
2018-12-14T20:56:09.723Z,18.80
2018-12-14T20:58:39.123Z,18.45
2018-12-14T21:01:08.436Z,18.90
2018-12-14T21:03:37.763Z,18.62
2018-12-14T21:06:07.130Z,18.45
2018-12-14T21:08:36.339Z,18.35
2018-12-14T21:11:05.738Z,18.70
2018-12-14T21:13:35.147Z,18.40
2018-12-14T21:16:04.363Z,17.10
2018-12-14T21:18:33.640Z,17.20
2018-12-14T21:21:02.787Z,17.10
2018-12-14T21:23:32.046Z,17.12
2018-12-14T21:26:01.252Z,16.60
2018-12-14T21:28:30.446Z,17.30
2018-12-14T21:30:59.831Z,16.87
2018-12-14T21:33:29.256Z,16.50
2018-12-14T21:35:58.632Z,17.05
2018-12-14T21:38:27.887Z,16.82
2018-12-14T21:40:57.251Z,16.15
2018-12-14T21:43:26.556Z,15.60
2018-12-14T21:45:55.865Z,16.30
2018-12-14T21:48:25.173Z,16.37
2018-12-14T21:50:54.656Z,15.13
2018-12-14T21:53:23.960Z,15.63
2018-12-14T21:55:53.268Z,16.17
2018-12-14T21:58:22.666Z,15.63
2018-12-14T22:00:51.975Z,15.03
2018-12-14T22:03:21.359Z,14.65
2018-12-14T22:05:50.587Z,14.85
2018-12-14T22:08:20.074Z,14.10
2018-12-14T22:10:49.587Z,14.50
2018-12-14T22:13:18.881Z,14.95
2018-12-14T22:15:48.182Z,14.90
2018-12-14T22:18:17.487Z,13.65
2018-12-14T22:20:46.788Z,13.55
2018-12-14T22:23:16.007Z,14.15
2018-12-14T22:25:45.207Z,13.70
2018-12-14T22:28:14.689Z,13.48
2018-12-14T22:30:43.984Z,14.95
2018-12-14T22:33:13.387Z,14.00
2018-12-14T22:35:42.782Z,14.25
2018-12-14T22:38:12.102Z,14.45
2018-12-14T22:40:41.512Z,13.53
2018-12-14T22:43:10.899Z,12.55
2018-12-14T22:45:40.120Z,13.05
2018-12-14T22:48:09.514Z,13.83
2018-12-14T22:50:38.829Z,13.20
2018-12-14T22:53:08.218Z,13.85
2018-12-14T22:55:37.417Z,13.78
2018-12-14T22:58:06.616Z,12.65
2018-12-14T23:00:39.979Z,12.37
2018-12-14T23:03:09.217Z,12.28
2018-12-14T23:05:38.620Z,13.38
2018-12-14T23:08:07.919Z,12.58
2018-12-14T23:10:37.165Z,11.38
2018-12-14T23:13:06.721Z,12.98
2018-12-14T23:15:36.137Z,12.65
2018-12-14T23:18:05.623Z,12.55
2018-12-14T23:20:34.927Z,12.25
2018-12-14T23:23:04.230Z,12.58
2018-12-14T23:25:33.645Z,11.50
2018-12-14T23:28:03.096Z,11.50
2018-12-14T23:30:32.143Z,11.33
2018-12-14T23:33:01.427Z,11.80
2018-12-14T23:35:30.645Z,11.33
2018-12-14T23:38:00.035Z,10.90
2018-12-14T23:40:29.245Z,11.30
2018-12-14T23:42:58.542Z,10.82
2018-12-14T23:45:27.740Z,11.48
2018-12-14T23:47:56.943Z,11.08
2018-12-14T23:50:26.342Z,11.18
2018-12-14T23:52:55.648Z,10.98
2018-12-14T23:55:25.068Z,10.98
2018-12-14T23:57:54.442Z,10.58
